Time;durP1;ratioP1;P1;durP2;ratioP2;P2;SDS_P1;SDS_P2;PMS_P1;PMS_P2;Temp;Humidity;BMP_temperature;BMP_pressure;BME280_temperature;BME280_humidity;BME280_pressure;Samples;Min_cycle;Max_cycle;Signal;HPM_P1;HPM_P2
2023/05/20 00:00:16;;;;;;;19.87;7.60;;;10.00;74.30;;;;;;6260170;22;20018;-86
2023/05/20 00:02:42;;;;;;;21.10;7.70;;;9.90;74.40;;;;;;6285024;22;20023;-87
2023/05/20 00:05:08;;;;;;;21.23;8.20;;;10.00;74.40;;;;;;6312013;22;20068;-86
2023/05/20 00:07:34;;;;;;;22.77;8.53;;;9.90;74.30;;;;;;6258109;22;20038;-87
2023/05/20 00:09:59;;;;;;;24.57;8.43;;;9.90;74.40;;;;;;6260361;22;20022;-86
2023/05/20 00:12:25;;;;;;;17.83;7.70;;;9.90;74.40;;;;;;6259722;22;20022;-87
2023/05/20 00:14:51;;;;;;;21.30;8.33;;;9.80;74.40;;;;;;6260505;22;20023;-87
2023/05/20 00:17:17;;;;;;;25.70;8.17;;;9.80;74.40;;;;;;6308814;22;20114;-87
2023/05/20 00:19:42;;;;;;;22.13;7.40;;;9.80;74.50;;;;;;6311397;22;20082;-87
2023/05/20 00:22:08;;;;;;;22.77;8.20;;;9.80;74.50;;;;;;6311129;22;20021;-86
2023/05/20 00:24:34;;;;;;;21.30;7.20;;;9.80;74.50;;;;;;6286117;22;20025;-87
2023/05/20 00:27:01;;;;;;;18.60;7.63;;;9.80;74.50;;;;;;6283839;22;20014;-87
2023/05/20 00:29:27;;;;;;;21.97;8.13;;;9.80;74.50;;;;;;6309917;22;20026;-87
2023/05/20 00:31:53;;;;;;;21.13;8.30;;;9.80;74.40;;;;;;6312110;22;20018;-87
2023/05/20 00:34:19;;;;;;;21.97;8.53;;;9.80;74.40;;;;;;6259645;22;20015;-87
2023/05/20 00:36:45;;;;;;;21.53;7.93;;;9.80;74.40;;;;;;6283975;22;20014;-88
2023/05/20 00:39:11;;;;;;;20.97;8.23;;;9.80;74.40;;;;;;6260533;22;20021;-86
2023/05/20 00:41:37;;;;;;;17.67;7.50;;;9.70;74.40;;;;;;6285935;22;20433;-87
2023/05/20 00:44:03;;;;;;;21.00;8.13;;;9.70;74.40;;;;;;6283967;22;20015;-86
2023/05/20 00:46:29;;;;;;;22.83;8.27;;;9.70;74.30;;;;;;6259527;22;20060;-88
2023/05/20 00:48:55;;;;;;;20.13;8.47;;;9.70;74.40;;;;;;6309981;22;20029;-86
2023/05/20 00:51:21;;;;;;;17.17;7.67;;;9.70;74.40;;;;;;6260758;22;20499;-86
2023/05/20 00:53:47;;;;;;;18.53;7.63;;;9.70;74.30;;;;;;6283815;22;20026;-87
2023/05/20 00:56:13;;;;;;;21.90;8.03;;;9.70;74.30;;;;;;6284960;22;20052;-87
2023/05/20 00:58:39;;;;;;;20.97;8.20;;;9.60;74.30;;;;;;6309455;22;20018;-87
2023/05/20 01:01:05;;;;;;;19.70;8.20;;;9.60;74.30;;;;;;6285476;22;20445;-87
2023/05/20 01:03:31;;;;;;;17.80;7.80;;;9.60;74.30;;;;;;6284615;22;20081;-86
2023/05/20 01:05:57;;;;;;;18.13;7.57;;;9.60;74.30;;;;;;6285497;22;20018;-86
2023/05/20 01:08:24;;;;;;;21.93;8.47;;;9.50;74.30;;;;;;6308902;22;20337;-87
2023/05/20 01:10:59;;;;;;;16.90;7.73;;;9.50;74.20;;;;;;6312052;22;20072;-87
2023/05/20 01:13:32;;;;;;;16.23;7.83;;;9.50;74.30;;;;;;6284581;22;20023;-87
2023/05/20 01:16:00;;;;;;;19.33;8.03;;;9.50;74.30;;;;;;6312101;22;20011;-87
2023/05/20 01:18:30;;;;;;;19.80;7.63;;;9.40;74.40;;;;;;6309049;22;20015;-87
2023/05/20 01:21:00;;;;;;;21.93;7.47;;;9.40;74.40;;;;;;6311953;22;20462;-87
2023/05/20 01:23:47;;;;;;;13.50;7.60;;;9.40;74.40;;;;;;6310503;22;20025;-86
2023/05/20 01:26:12;;;;;;;19.23;7.83;;;9.40;74.40;;;;;;6311179;22;20011;-87
2023/05/20 01:28:38;;;;;;;15.93;7.53;;;9.40;74.30;;;;;;6309260;22;20019;-86
2023/05/20 01:31:09;;;;;;;16.23;6.90;;;9.40;74.40;;;;;;6286365;22;20018;-86
2023/05/20 01:33:37;;;;;;;16.10;5.95;;;9.40;74.30;;;;;;6286345;22;20072;-86
2023/05/20 01:36:07;;;;;;;21.43;7.97;;;9.40;74.30;;;;;;6314068;22;20085;-88
2023/05/20 01:38:35;;;;;;;15.80;7.30;;;9.40;74.30;;;;;;6287287;22;20026;-87
2023/05/20 01:41:03;;;;;;;13.63;6.87;;;9.40;74.20;;;;;;6312879;22;20014;-86
2023/05/20 01:43:30;;;;;;;16.53;7.63;;;9.40;74.20;;;;;;6286003;22;20467;-87
2023/05/20 01:45:55;;;;;;;15.63;7.47;;;9.40;74.20;;;;;;6313128;22;20014;-87
2023/05/20 01:48:21;;;;;;;15.50;7.07;;;9.40;74.20;;;;;;6285173;22;20015;-87
2023/05/20 01:50:47;;;;;;;15.37;7.47;;;9.40;74.10;;;;;;6287959;22;20053;-86
2023/05/20 01:53:13;;;;;;;19.17;7.43;;;9.40;74.10;;;;;;6286509;22;20014;-86
2023/05/20 01:55:39;;;;;;;14.53;7.57;;;9.40;74.10;;;;;;6313356;22;20022;-88
2023/05/20 01:58:04;;;;;;;21.00;7.50;;;9.30;74.10;;;;;;6310969;22;20042;-87
2023/05/20 02:00:32;;;;;;;19.63;8.17;;;9.30;74.10;;;;;;6312871;22;20498;-87
2023/05/20 02:02:58;;;;;;;14.57;7.67;;;9.20;74.10;;;;;;6311618;22;20025;-87
2023/05/20 02:05:24;;;;;;;16.33;7.33;;;9.20;74.30;;;;;;6312961;22;20372;-87
2023/05/20 02:07:50;;;;;;;14.10;7.40;;;9.20;74.20;;;;;;6310964;22;20018;-86
2023/05/20 02:10:15;;;;;;;16.53;7.33;;;9.20;74.20;;;;;;6312724;22;20054;-86
2023/05/20 02:12:42;;;;;;;18.47;7.67;;;9.20;74.20;;;;;;6312007;22;20078;-87
2023/05/20 02:15:10;;;;;;;12.87;6.93;;;9.20;74.20;;;;;;6288247;22;20098;-91
2023/05/20 02:17:42;;;;;;;12.17;7.10;;;9.20;74.20;;;;;;6261131;22;20067;-90
2023/05/20 02:20:09;;;;;;;11.40;6.53;;;9.20;74.20;;;;;;6312521;22;20014;-88
2023/05/20 02:22:35;;;;;;;12.63;6.60;;;9.20;74.10;;;;;;6285841;22;20479;-89
2023/05/20 02:25:02;;;;;;;10.77;7.10;;;9.10;74.10;;;;;;6287042;22;20056;-91
2023/05/20 02:27:30;;;;;;;17.20;6.77;;;9.10;74.20;;;;;;6284422;22;20010;-89
2023/05/20 02:29:56;;;;;;;16.40;6.87;;;9.00;74.10;;;;;;6287505;22;20027;-88
2023/05/20 02:32:26;;;;;;;15.13;6.77;;;9.00;74.20;;;;;;6311162;22;20053;-89
2023/05/20 02:34:53;;;;;;;12.43;6.77;;;9.00;74.20;;;;;;6287202;22;20063;-89
2023/05/20 02:37:19;;;;;;;15.33;6.83;;;9.00;74.20;;;;;;6260619;22;20038;-89
2023/05/20 02:39:45;;;;;;;12.23;6.70;;;9.00;74.20;;;;;;6286432;22;20011;-89
2023/05/20 02:42:11;;;;;;;17.10;7.13;;;9.00;74.20;;;;;;6285216;22;20021;-89
2023/05/20 02:44:37;;;;;;;13.17;6.43;;;9.00;74.30;;;;;;6287359;22;20310;-89
2023/05/20 02:47:03;;;;;;;14.77;6.87;;;9.00;74.30;;;;;;6310771;22;20116;-87
2023/05/20 02:49:28;;;;;;;13.53;6.60;;;9.00;74.20;;;;;;6313246;22;20441;-90
2023/05/20 02:51:55;;;;;;;14.87;6.23;;;9.00;74.30;;;;;;6286652;22;20045;-89
2023/05/20 02:54:23;;;;;;;13.87;6.40;;;9.00;74.20;;;;;;6260490;22;20071;-89
2023/05/20 02:56:49;;;;;;;13.13;6.40;;;9.00;74.20;;;;;;6311300;22;20015;-91
2023/05/20 02:59:15;;;;;;;9.70;5.53;;;9.00;74.20;;;;;;6284985;22;20431;-89
2023/05/20 03:01:44;;;;;;;12.27;5.93;;;9.00;74.10;;;;;;6287096;22;20054;-89
2023/05/20 03:04:10;;;;;;;12.13;5.83;;;8.90;74.20;;;;;;6260587;22;20019;-89
2023/05/20 03:06:37;;;;;;;10.37;5.37;;;8.90;74.10;;;;;;6259774;22;20026;-92
2023/05/20 03:09:02;;;;;;;11.57;6.23;;;8.90;74.10;;;;;;6285222;22;20035;-90
2023/05/20 03:11:28;;;;;;;13.53;6.07;;;8.90;74.10;;;;;;6286365;22;20018;-89
2023/05/20 03:13:54;;;;;;;12.87;5.77;;;8.90;74.10;;;;;;6260052;22;20080;-89
2023/05/20 03:16:21;;;;;;;10.93;5.43;;;8.90;74.10;;;;;;6260495;22;20019;-89
2023/05/20 03:18:47;;;;;;;15.00;5.33;;;8.90;74.10;;;;;;6285512;22;20068;-90
2023/05/20 03:21:12;;;;;;;11.63;4.90;;;8.90;74.00;;;;;;6261765;22;20019;-89
2023/05/20 03:23:38;;;;;;;12.67;4.83;;;8.90;74.00;;;;;;6284822;22;20022;-89
2023/05/20 03:26:07;;;;;;;9.70;4.53;;;8.90;74.00;;;;;;6262037;22;20011;-90
2023/05/20 03:28:35;;;;;;;14.33;5.20;;;8.90;74.00;;;;;;6285033;22;20011;-90
2023/05/20 03:31:01;;;;;;;11.87;5.30;;;8.90;73.90;;;;;;6286191;22;20460;-89
2023/05/20 03:33:28;;;;;;;11.47;5.07;;;8.90;73.90;;;;;;6284969;22;20079;-88
2023/05/20 03:35:54;;;;;;;15.13;5.47;;;8.90;73.90;;;;;;6286022;22;20015;-90
2023/05/20 03:38:20;;;;;;;12.33;4.90;;;8.90;73.80;;;;;;6284958;22;20021;-89
2023/05/20 03:40:46;;;;;;;6.20;4.00;;;8.80;73.80;;;;;;6261480;22;20425;-89
2023/05/20 03:43:11;;;;;;;12.07;4.43;;;8.80;73.80;;;;;;6285367;22;20015;-89
2023/05/20 03:45:37;;;;;;;13.20;4.40;;;8.80;73.80;;;;;;6312832;22;20064;-89
2023/05/20 03:48:03;;;;;;;9.97;4.00;;;8.80;73.80;;;;;;6283049;22;20476;-88
2023/05/20 03:50:30;;;;;;;8.20;4.53;;;8.80;73.70;;;;;;6286653;22;20425;-89
2023/05/20 03:52:57;;;;;;;10.10;4.60;;;8.80;73.70;;;;;;6284922;22;20014;-89
2023/05/20 03:55:24;;;;;;;9.90;4.00;;;8.80;73.70;;;;;;6312798;22;20363;-89
2023/05/20 03:57:50;;;;;;;11.40;3.97;;;8.80;73.70;;;;;;6309069;22;20436;-89
2023/05/20 04:00:17;;;;;;;5.17;3.53;;;8.70;73.70;;;;;;6255098;22;20023;-89
2023/05/20 04:02:43;;;;;;;7.23;3.53;;;8.80;73.70;;;;;;6253835;22;20029;-90
2023/05/20 04:05:09;;;;;;;6.00;3.50;;;8.70;73.70;;;;;;6230116;22;20098;-89
2023/05/20 04:07:35;;;;;;;9.63;4.23;;;8.70;73.60;;;;;;6252908;22;20076;-90
2023/05/20 04:10:02;;;;;;;7.93;3.87;;;8.80;73.70;;;;;;6255377;22;20011;-89
2023/05/20 04:12:29;;;;;;;8.37;3.70;;;8.80;73.70;;;;;;6228281;22;20026;-89
2023/05/20 04:15:02;;;;;;;6.63;3.63;;;8.80;73.70;;;;;;6255267;22;20111;-91
2023/05/20 04:17:29;;;;;;;8.37;3.57;;;8.80;73.70;;;;;;6252805;22;20095;-90
2023/05/20 04:19:57;;;;;;;6.50;3.47;;;8.90;73.70;;;;;;6255110;22;20112;-90
2023/05/20 04:22:22;;;;;;;7.30;3.17;;;8.90;73.70;;;;;;6253854;22;20030;-89
2023/05/20 04:24:49;;;;;;;9.83;3.47;;;9.00;73.70;;;;;;6255227;22;20015;-90
2023/05/20 04:27:15;;;;;;;9.10;3.90;;;9.00;73.70;;;;;;6251937;22;20086;-89
2023/05/20 04:29:44;;;;;;;7.37;3.53;;;9.00;73.60;;;;;;6254858;22;20034;-90
2023/05/20 04:32:12;;;;;;;6.47;3.27;;;9.00;73.60;;;;;;6278770;22;20011;-89
2023/05/20 04:34:38;;;;;;;7.73;2.90;;;9.10;73.70;;;;;;6255681;22;20016;-89
2023/05/20 04:37:06;;;;;;;8.23;3.07;;;9.20;73.70;;;;;;6253311;22;20018;-89
2023/05/20 04:39:32;;;;;;;8.53;2.80;;;9.20;73.70;;;;;;6254795;22;20410;-90
2023/05/20 04:41:58;;;;;;;6.33;3.00;;;9.20;73.60;;;;;;6204626;22;20019;-89
2023/05/20 04:44:25;;;;;;;6.07;2.80;;;9.30;73.60;;;;;;6279521;22;20337;-89
2023/05/20 04:46:51;;;;;;;5.33;2.93;;;9.40;73.50;;;;;;6253605;22;20065;-89
2023/05/20 04:49:17;;;;;;;5.97;2.27;;;9.40;73.50;;;;;;6253540;22;20177;-89
2023/05/20 04:51:46;;;;;;;4.03;2.50;;;9.50;73.30;;;;;;6255065;22;20019;-89
2023/05/20 04:54:13;;;;;;;4.10;2.23;;;9.60;73.30;;;;;;6279236;22;20081;-89
2023/05/20 04:56:39;;;;;;;4.90;2.27;;;9.60;73.20;;;;;;6229826;22;20361;-91
2023/05/20 04:59:04;;;;;;;4.87;2.37;;;9.70;73.20;;;;;;6256234;22;20015;-89
2023/05/20 05:01:30;;;;;;;5.83;2.20;;;9.80;73.10;;;;;;6311320;22;20064;-89
2023/05/20 05:03:56;;;;;;;5.10;2.20;;;9.80;73.00;;;;;;6257923;22;20026;-89
2023/05/20 05:06:22;;;;;;;5.00;2.00;;;9.90;72.90;;;;;;6285959;22;20011;-91
2023/05/20 05:08:48;;;;;;;4.47;2.43;;;10.00;72.70;;;;;;6283704;22;20076;-90
2023/05/20 05:11:13;;;;;;;4.97;1.93;;;10.00;72.50;;;;;;6259840;22;20022;-90
2023/05/20 05:13:39;;;;;;;6.10;2.10;;;10.00;72.50;;;;;;6283373;22;20071;-89
2023/05/20 05:16:05;;;;;;;5.87;1.90;;;10.00;72.30;;;;;;6259687;22;20067;-91
2023/05/20 05:18:31;;;;;;;3.87;1.70;;;10.00;72.20;;;;;;6257899;22;20078;-89
2023/05/20 05:21:05;;;;;;;5.30;1.70;;;10.00;72.10;;;;;;6311245;22;20014;-89
2023/05/20 05:23:31;;;;;;;4.67;2.17;;;10.00;71.90;;;;;;6283885;22;20036;-89
2023/05/20 05:25:58;;;;;;;4.17;2.00;;;10.00;72.10;;;;;;6285776;22;20404;-89
2023/05/20 05:28:24;;;;;;;4.80;2.00;;;10.10;72.00;;;;;;6283141;22;20018;-90
2023/05/20 05:30:50;;;;;;;8.90;2.20;;;10.10;72.10;;;;;;6285282;22;20050;-90
2023/05/20 05:33:16;;;;;;;3.33;1.53;;;10.20;72.10;;;;;;6284591;22;20464;-89
2023/05/20 05:35:48;;;;;;;4.43;2.07;;;10.30;72.20;;;;;;6285450;22;20018;-91
2023/05/20 05:38:14;;;;;;;4.10;1.90;;;10.70;72.50;;;;;;6284375;22;20457;-89
2023/05/20 05:40:40;;;;;;;3.30;1.73;;;11.10;72.10;;;;;;6259800;22;20011;-90
2023/05/20 05:43:06;;;;;;;3.22;1.83;;;11.50;71.80;;;;;;6258501;22;20044;-88
2023/05/20 05:45:32;;;;;;;5.38;1.90;;;11.70;71.30;;;;;;6259696;22;20071;-89
2023/05/20 05:47:58;;;;;;;5.70;1.98;;;12.00;70.70;;;;;;6256705;22;20011;-90
2023/05/20 05:50:24;;;;;;;3.72;1.38;;;12.20;70.40;;;;;;6260203;22;20011;-90
2023/05/20 05:52:49;;;;;;;5.30;1.65;;;12.40;70.20;;;;;;6255579;22;20406;-91
2023/05/20 05:55:18;;;;;;;3.60;1.40;;;12.50;69.80;;;;;;6270447;22;20518;-90
2023/05/20 05:57:44;;;;;;;4.30;1.20;;;12.70;69.50;;;;;;6242340;22;20105;-90
2023/05/20 06:00:13;;;;;;;6.82;1.40;;;12.80;69.00;;;;;;6284817;22;20058;-91
2023/05/20 06:02:42;;;;;;;5.03;1.30;;;12.90;68.30;;;;;;6258745;22;20039;-92
2023/05/20 06:05:09;;;;;;;5.88;1.50;;;12.80;68.00;;;;;;6259685;22;20019;-90
2023/05/20 06:07:35;;;;;;;2.22;1.25;;;12.80;68.00;;;;;;6257274;22;20015;-90
2023/05/20 06:10:04;;;;;;;6.57;1.60;;;12.80;67.60;;;;;;6285677;22;20015;-90
2023/05/20 06:12:30;;;;;;;3.55;1.33;;;12.70;67.70;;;;;;6281225;22;20441;-91
2023/05/20 06:14:59;;;;;;;3.25;1.40;;;12.70;67.60;;;;;;6286261;22;20047;-90
2023/05/20 06:17:38;;;;;;;;;;;;;;;;;;;;;
2023/05/20 06:20:05;;;;;;;3.15;1.23;;;12.70;67.50;;;;;;6313072;22;20011;-89
2023/05/20 06:22:31;;;;;;;2.70;1.40;;;12.70;67.60;;;;;;6286261;22;20022;-89
2023/05/20 06:24:59;;;;;;;4.53;1.30;;;12.70;67.60;;;;;;6260916;22;20341;-88
2023/05/20 06:27:26;;;;;;;4.38;1.33;;;12.80;67.70;;;;;;6283601;22;20018;-90
2023/05/20 06:29:52;;;;;;;4.00;1.40;;;12.80;67.30;;;;;;6287020;22;20017;-89
2023/05/20 06:32:18;;;;;;;5.93;1.65;;;12.80;67.30;;;;;;6285271;22;20109;-89
2023/05/20 06:34:55;;;;;;;3.85;1.30;;;12.80;67.10;;;;;;6261893;22;20452;-92
2023/05/20 06:37:23;;;;;;;3.70;1.30;;;12.90;67.20;;;;;;6286545;22;20079;-88
2023/05/20 06:39:52;;;;;;;4.65;1.35;;;13.00;67.20;;;;;;6313355;22;20011;-90
2023/05/20 06:42:20;;;;;;;3.90;1.27;;;13.00;67.10;;;;;;6260809;22;20093;-89
2023/05/20 06:44:46;;;;;;;6.53;1.10;;;13.10;67.10;;;;;;6286834;22;20018;-87
2023/05/20 06:47:14;;;;;;;5.22;1.48;;;13.10;66.50;;;;;;6257948;22;20034;-91
2023/05/20 06:49:42;;;;;;;4.20;0.98;;;13.10;66.80;;;;;;6312880;22;20015;-89
2023/05/20 06:52:07;;;;;;;3.92;1.38;;;13.10;66.50;;;;;;6285381;22;20019;-91
2023/05/20 06:54:38;;;;;;;2.92;1.15;;;13.10;66.50;;;;;;6286613;22;20018;-90
2023/05/20 06:57:05;;;;;;;2.22;1.30;;;13.10;66.50;;;;;;6284220;22;20416;-89
2023/05/20 06:59:31;;;;;;;5.75;1.15;;;13.10;66.50;;;;;;6286380;22;20071;-90
2023/05/20 07:01:57;;;;;;;4.82;1.30;;;13.10;66.60;;;;;;6287340;22;20080;-92
2023/05/20 07:04:23;;;;;;;4.10;1.40;;;13.10;66.40;;;;;;6285558;22;20015;-88
2023/05/20 07:06:52;;;;;;;4.32;1.17;;;13.20;66.40;;;;;;6284375;22;20014;-91
2023/05/20 07:09:18;;;;;;;3.88;1.35;;;13.30;66.30;;;;;;6286008;22;20034;-90
2023/05/20 07:11:44;;;;;;;2.00;0.90;;;13.30;66.20;;;;;;6261790;22;20033;-90
2023/05/20 07:14:10;;;;;;;3.05;1.05;;;13.30;66.20;;;;;;6284472;22;20022;-90
2023/05/20 07:16:36;;;;;;;7.28;1.45;;;13.30;66.00;;;;;;6285541;22;20061;-91
2023/05/20 07:19:03;;;;;;;4.88;1.25;;;13.40;66.20;;;;;;6284942;22;20367;-89
2023/05/20 07:21:29;;;;;;;5.57;1.38;;;13.50;66.30;;;;;;6286502;22;20089;-89
2023/05/20 07:23:58;;;;;;;4.07;1.23;;;13.60;66.00;;;;;;6285070;22;20379;-89
2023/05/20 07:26:23;;;;;;;4.35;1.33;;;13.60;65.80;;;;;;6261061;22;20067;-91
2023/05/20 07:28:51;;;;;;;6.45;1.20;;;13.70;65.80;;;;;;6258238;22;20355;-90
2023/05/20 07:31:17;;;;;;;6.15;1.27;;;13.70;65.80;;;;;;6286464;22;20061;-88
2023/05/20 07:33:43;;;;;;;2.33;1.17;;;13.70;65.10;;;;;;6284397;22;20022;-90
2023/05/20 07:36:09;;;;;;;3.42;1.10;;;13.80;65.20;;;;;;6287167;22;20015;-91
2023/05/20 07:38:35;;;;;;;4.57;1.20;;;13.90;65.50;;;;;;6311755;22;20026;-89
2023/05/20 07:41:01;;;;;;;2.83;1.10;;;13.90;65.50;;;;;;6311912;22;20333;-89
2023/05/20 07:43:27;;;;;;;3.35;1.17;;;14.00;65.60;;;;;;6284948;22;20027;-89
2023/05/20 07:45:53;;;;;;;6.32;1.77;;;14.10;65.90;;;;;;6286235;22;20073;-91
2023/05/20 07:48:19;;;;;;;6.40;1.50;;;14.10;65.70;;;;;;6283112;22;20019;-88
2023/05/20 07:50:45;;;;;;;3.03;1.02;;;14.30;65.80;;;;;;6286281;22;20048;-88
2023/05/20 07:53:11;;;;;;;3.28;1.33;;;14.30;65.70;;;;;;6259262;22;20019;-89
2023/05/20 07:55:37;;;;;;;4.15;1.25;;;14.40;65.60;;;;;;6285760;22;20018;-88
2023/05/20 07:58:03;;;;;;;9.18;1.45;;;14.40;65.20;;;;;;6283628;22;20081;-89
2023/05/20 08:00:38;;;;;;;7.85;1.75;;;14.40;65.40;;;;;;6259729;22;20023;-89
2023/05/20 08:03:06;;;;;;;3.05;1.27;;;14.50;64.20;;;;;;6259513;22;20010;-90
2023/05/20 08:05:32;;;;;;;4.93;1.33;;;14.50;64.70;;;;;;6261210;22;20015;-89
2023/05/20 08:08:04;;;;;;;5.40;1.45;;;14.50;64.70;;;;;;6283627;22;20324;-90
2023/05/20 08:10:32;;;;;;;2.67;1.38;;;14.50;64.40;;;;;;6261921;22;20429;-91
2023/05/20 08:12:58;;;;;;;3.70;1.38;;;14.60;65.10;;;;;;6283949;22;20095;-90
2023/05/20 08:15:24;;;;;;;3.33;1.00;;;14.70;65.00;;;;;;6286259;22;20034;-89
2023/05/20 08:17:50;;;;;;;4.60;1.02;;;14.80;64.80;;;;;;6257913;22;20038;-89
2023/05/20 08:20:16;;;;;;;2.88;1.05;;;14.80;64.60;;;;;;6260258;22;20015;-91
2023/05/20 08:22:42;;;;;;;7.47;1.42;;;14.90;64.60;;;;;;6260806;22;20020;-91
2023/05/20 08:25:10;;;;;;;3.92;1.38;;;14.90;64.60;;;;;;6268418;22;20144;-90
2023/05/20 08:27:36;;;;;;;3.50;1.10;;;14.90;64.70;;;;;;6308282;22;20018;-90
2023/05/20 08:30:04;;;;;;;7.53;1.13;;;14.90;64.60;;;;;;6260451;22;20042;-90
2023/05/20 08:32:30;;;;;;;7.82;1.40;;;15.00;64.60;;;;;;6283625;22;20017;-90
2023/05/20 08:41:59;;;;;;;3.85;1.00;;;15.00;63.90;;;;;;6291505;22;20015;-86
2023/05/20 08:44:27;;;;;;;2.95;1.38;;;15.20;64.10;;;;;;6309799;22;20656;-86
2023/05/20 08:46:53;;;;;;;4.55;1.20;;;15.20;63.50;;;;;;6284739;22;20015;-90
2023/05/20 08:49:19;;;;;;;3.90;1.20;;;15.20;63.30;;;;;;6311032;22;20018;-86
2023/05/20 08:51:46;;;;;;;2.85;1.10;;;15.30;63.20;;;;;;6285221;22;20023;-88
2023/05/20 08:54:13;;;;;;;4.95;1.33;;;15.30;63.00;;;;;;6284696;22;20010;-88
2023/05/20 08:56:40;;;;;;;4.05;1.02;;;15.30;63.20;;;;;;6260247;22;20022;-89
2023/05/20 08:59:08;;;;;;;7.85;1.30;;;15.40;63.50;;;;;;6259214;22;20023;-90
2023/05/20 09:01:42;;;;;;;4.18;1.00;;;15.50;63.70;;;;;;6260160;22;20017;-92
2023/05/20 09:04:08;;;;;;;4.65;1.35;;;15.60;62.90;;;;;;6309662;22;20023;-89
2023/05/20 09:06:44;;;;;;;4.22;1.33;;;15.60;63.10;;;;;;6285049;22;20011;-90
2023/05/20 09:09:11;;;;;;;5.00;1.23;;;15.60;63.00;;;;;;6216722;22;20404;-88
2023/05/20 09:11:40;;;;;;;7.55;1.23;;;15.80;63.00;;;;;;6337378;22;20464;-91
2023/05/20 09:14:08;;;;;;;3.58;0.95;;;15.80;62.90;;;;;;6243772;22;20499;-89
2023/05/20 09:16:34;;;;;;;5.13;1.25;;;15.80;62.70;;;;;;6260541;22;20041;-92
2023/05/20 09:19:03;;;;;;;3.28;1.20;;;16.00;63.00;;;;;;6284498;22;20360;-89
2023/05/20 09:21:29;;;;;;;3.38;1.13;;;16.00;63.00;;;;;;6285387;22;20018;-88
2023/05/20 09:23:58;;;;;;;2.17;0.93;;;16.10;62.60;;;;;;6284114;22;20030;-89
2023/05/20 09:26:31;;;;;;;2.30;1.00;;;16.10;62.60;;;;;;6284816;22;20014;-91
2023/05/20 09:28:58;;;;;;;4.97;1.45;;;16.10;62.70;;;;;;6283660;22;20038;-89
2023/05/20 09:31:30;;;;;;;4.10;1.25;;;16.10;63.00;;;;;;6286153;22;20026;-91
2023/05/20 09:33:56;;;;;;;5.97;1.13;;;16.20;62.60;;;;;;6284279;22;20022;-91
2023/05/20 09:36:26;;;;;;;5.97;1.33;;;16.10;62.70;;;;;;6284653;22;20015;-92
2023/05/20 09:38:56;;;;;;;2.90;1.30;;;16.10;63.00;;;;;;6285552;22;20014;-90
2023/05/20 09:41:25;;;;;;;2.85;1.30;;;16.10;62.70;;;;;;6285329;22;20307;-88
2023/05/20 09:44:05;;;;;;;5.28;1.67;;;16.00;62.80;;;;;;6284368;22;20444;-91
2023/05/20 09:46:34;;;;;;;5.88;1.63;;;16.00;63.20;;;;;;6310906;22;20007;-91
2023/05/20 09:49:01;;;;;;;4.93;1.50;;;16.10;63.20;;;;;;6244237;22;20027;-89
2023/05/20 09:51:28;;;;;;;3.45;1.50;;;16.20;62.90;;;;;;6285772;22;20018;-90
2023/05/20 09:53:55;;;;;;;5.13;1.80;;;16.20;62.80;;;;;;6286030;22;20023;-89
2023/05/20 09:56:27;;;;;;;2.85;1.52;;;16.20;62.80;;;;;;6287547;22;20015;-92
2023/05/20 09:58:57;;;;;;;;;;;16.20;63.10;;;;;;6312078;22;20011;-87
2023/05/20 10:01:24;;;;;;;6.10;2.00;;;16.20;63.00;;;;;;6338434;22;20219;-88
2023/05/20 10:03:51;;;;;;;3.63;1.38;;;16.30;63.30;;;;;;6287407;22;20021;-88
2023/05/20 10:06:42;;;;;;;4.25;1.60;;;16.40;63.10;;;;;;6286612;22;20557;-89
2023/05/20 10:09:33;;;;;;;5.88;2.00;;;16.40;64.40;;;;;;6287346;22;20430;-88
2023/05/20 10:12:05;;;;;;;4.45;1.75;;;16.50;63.60;;;;;;6287079;22;20019;-88
2023/05/20 10:14:40;;;;;;;4.50;1.80;;;16.60;63.50;;;;;;6286772;22;20015;-88
2023/05/20 10:17:09;;;;;;;7.28;1.80;;;16.60;63.40;;;;;;6285074;22;20090;-88
2023/05/20 10:19:35;;;;;;;7.75;2.10;;;16.60;63.50;;;;;;6287206;22;20015;-87
2023/05/20 10:22:05;;;;;;;8.75;2.00;;;16.60;63.40;;;;;;6313474;22;20011;-87
2023/05/20 10:24:42;;;;;;;7.20;1.97;;;16.50;63.50;;;;;;6287959;22;20067;-88
2023/05/20 10:27:15;;;;;;;5.05;2.30;;;16.60;63.70;;;;;;6285611;22;20295;-88
2023/05/20 10:29:57;;;;;;;6.20;1.88;;;16.50;64.00;;;;;;6262616;22;20496;-87
2023/05/20 10:32:23;;;;;;;;;;;16.50;64.00;;;;;;6262024;22;20019;-88
2023/05/20 10:34:50;;;;;;;5.13;2.25;;;16.60;64.00;;;;;;6312663;22;20332;-88
2023/05/20 10:37:31;;;;;;;5.45;2.20;;;16.50;64.10;;;;;;6311830;22;20457;-88
2023/05/20 10:40:11;;;;;;;10.10;1.95;;;16.50;64.60;;;;;;6313534;22;20050;-88
2023/05/20 10:42:37;;;;;;;10.82;2.50;;;16.60;65.20;;;;;;6312889;22;20022;-88
2023/05/20 10:45:03;;;;;;;8.98;2.40;;;16.60;64.70;;;;;;6313258;22;20010;-87
2023/05/20 10:47:30;;;;;;;7.32;2.38;;;16.60;64.90;;;;;;6285899;22;20025;-88
2023/05/20 10:50:00;;;;;;;8.55;2.38;;;16.70;65.30;;;;;;6312945;22;20037;-95
2023/05/20 10:52:47;;;;;;;13.00;2.47;;;16.80;65.00;;;;;;6297033;22;20014;-91
2023/05/20 10:55:21;;;;;;;8.13;2.38;;;16.70;65.00;;;;;;6315555;22;20015;-93
2023/05/20 10:57:47;;;;;;;6.75;2.05;;;16.70;64.50;;;;;;6286086;22;20021;-88
2023/05/20 11:00:15;;;;;;;6.75;2.65;;;16.70;64.70;;;;;;6311979;22;20045;-90
2023/05/20 11:02:41;;;;;;;6.28;2.85;;;16.70;64.90;;;;;;6286202;22;20445;-89
2023/05/20 11:05:11;;;;;;;9.27;2.50;;;16.60;64.90;;;;;;6261451;22;20508;-91
2023/05/20 11:07:37;;;;;;;10.45;2.83;;;16.60;65.00;;;;;;6311755;22;20333;-89
2023/05/20 11:10:11;;;;;;;10.43;2.78;;;16.70;65.20;;;;;;6293862;22;20049;-92
2023/05/20 11:12:38;;;;;;;10.57;2.83;;;16.70;65.00;;;;;;6290645;22;20018;-90
2023/05/20 11:15:04;;;;;;;8.63;2.67;;;16.70;64.90;;;;;;6286563;22;20054;-90
2023/05/20 11:17:33;;;;;;;11.27;3.25;;;16.60;64.90;;;;;;6286304;22;20026;-88
2023/05/20 11:19:59;;;;;;;7.78;3.00;;;16.60;65.20;;;;;;6261303;22;20015;-89
2023/05/20 11:22:25;;;;;;;9.10;2.75;;;16.60;65.40;;;;;;6236916;22;20307;-88
2023/05/20 11:24:51;;;;;;;9.48;3.10;;;16.60;65.60;;;;;;6286425;22;20019;-88
2023/05/20 11:27:18;;;;;;;7.88;2.88;;;16.70;65.10;;;;;;6286020;22;20102;-90
2023/05/20 11:29:43;;;;;;;8.20;2.65;;;16.60;64.90;;;;;;6261315;22;20498;-91
2023/05/20 11:32:11;;;;;;;7.63;2.70;;;16.50;64.80;;;;;;6286325;22;20093;-89
2023/05/20 11:34:38;;;;;;;5.63;3.00;;;16.60;65.00;;;;;;6286607;22;20018;-92
2023/05/20 11:37:08;;;;;;;9.85;3.03;;;16.70;65.00;;;;;;6285796;22;20026;-91
2023/05/20 11:39:34;;;;;;;7.40;2.88;;;16.80;65.20;;;;;;6285692;22;20019;-90
2023/05/20 11:42:02;;;;;;;6.30;2.85;;;16.90;65.00;;;;;;6261067;22;20330;-91
2023/05/20 11:44:28;;;;;;;8.10;2.90;;;16.80;64.90;;;;;;6285750;22;20017;-93
2023/05/20 11:47:01;;;;;;;7.70;2.95;;;16.80;64.70;;;;;;6285197;22;20042;-91
2023/05/20 11:49:27;;;;;;;11.65;3.17;;;16.80;64.50;;;;;;6286640;22;20015;-89
2023/05/20 11:51:53;;;;;;;9.63;2.78;;;16.90;64.90;;;;;;6285994;22;20042;-92
2023/05/20 11:54:23;;;;;;;7.45;3.70;;;16.90;64.80;;;;;;6285622;22;20360;-91
2023/05/20 11:56:49;;;;;;;11.27;3.47;;;16.80;65.00;;;;;;6285510;22;20019;-92
2023/05/20 11:59:17;;;;;;;13.60;3.13;;;16.80;65.20;;;;;;6286195;22;20044;-90
2023/05/20 12:01:44;;;;;;;6.28;3.00;;;16.80;65.00;;;;;;6285979;22;20322;-91
2023/05/20 12:04:12;;;;;;;8.30;2.88;;;16.90;65.00;;;;;;6260817;22;20099;-93
2023/05/20 12:06:42;;;;;;;8.07;3.20;;;17.00;65.00;;;;;;6261706;22;20042;-92
2023/05/20 12:09:12;;;;;;;6.20;3.10;;;16.90;64.70;;;;;;6314633;22;20026;-96
2023/05/20 12:18:56;;;;;;;5.82;3.33;;;16.90;64.30;;;;;;6268145;22;20101;-90
2023/05/20 12:21:22;;;;;;;7.45;3.35;;;16.90;64.60;;;;;;6287035;22;20321;-91
2023/05/20 12:23:47;;;;;;;9.68;3.40;;;17.00;64.50;;;;;;6286335;22;20093;-89
2023/05/20 12:26:13;;;;;;;5.35;2.72;;;17.00;64.60;;;;;;6311334;22;20015;-90
2023/05/20 12:28:41;;;;;;;8.68;3.38;;;17.20;64.70;;;;;;6285246;22;20014;-90
2023/05/20 12:31:07;;;;;;;8.93;3.67;;;17.30;64.60;;;;;;6285456;22;20400;-91
2023/05/20 12:33:33;;;;;;;7.20;3.60;;;17.40;64.40;;;;;;6285753;22;20041;-89
2023/05/20 12:35:59;;;;;;;8.32;3.20;;;17.40;64.40;;;;;;6235558;22;20010;-92
2023/05/20 12:38:25;;;;;;;11.02;3.35;;;17.50;64.50;;;;;;6284614;22;20018;-91
2023/05/20 12:40:50;;;;;;;8.43;3.53;;;17.50;63.80;;;;;;6286174;22;20021;-90
2023/05/20 12:43:16;;;;;;;12.98;3.75;;;17.50;63.90;;;;;;6285836;22;20083;-90
2023/05/20 12:45:42;;;;;;;7.85;3.90;;;17.40;63.80;;;;;;6260237;22;20019;-90
2023/05/20 12:48:15;;;;;;;7.90;3.80;;;17.50;64.30;;;;;;6284713;22;20015;-93
2023/05/20 12:50:41;;;;;;;9.25;3.90;;;17.50;64.10;;;;;;6286073;22;20103;-91
2023/05/20 12:53:10;;;;;;;7.65;3.30;;;17.60;64.40;;;;;;6234538;22;20019;-90
2023/05/20 12:55:36;;;;;;;9.75;3.88;;;17.60;63.90;;;;;;6284504;22;20548;-89
2023/05/20 12:58:04;;;;;;;6.68;3.20;;;17.60;63.60;;;;;;6283887;22;20021;-91
2023/05/20 13:00:30;;;;;;;13.07;4.15;;;17.50;63.40;;;;;;6286018;22;20015;-89
2023/05/20 13:02:56;;;;;;;6.72;3.63;;;17.50;63.90;;;;;;6261118;22;20439;-91